sensor_id;sensor_type;location;lat;lon;timestamp;P1;durP1;ratioP1;P2;durP2;ratioP2
67747;SDS011;54543;50.712;6.070;2023-04-07T00:01:19;7.72;;;4.60;;
67747;SDS011;54543;50.712;6.070;2023-04-07T00:03:45;9.07;;;5.75;;
67747;SDS011;54543;50.712;6.070;2023-04-07T00:06:11;8.73;;;5.70;;
67747;SDS011;54543;50.712;6.070;2023-04-07T00:08:37;8.05;;;4.97;;
67747;SDS011;54543;50.712;6.070;2023-04-07T00:11:03;7.95;;;5.38;;
67747;SDS011;54543;50.712;6.070;2023-04-07T00:13:29;9.38;;;6.18;;
67747;SDS011;54543;50.712;6.070;2023-04-07T00:15:54;10.55;;;6.32;;
67747;SDS011;54543;50.712;6.070;2023-04-07T00:18:20;12.52;;;6.85;;
67747;SDS011;54543;50.712;6.070;2023-04-07T00:20:45;10.25;;;5.30;;
67747;SDS011;54543;50.712;6.070;2023-04-07T00:23:11;10.10;;;5.97;;
67747;SDS011;54543;50.712;6.070;2023-04-07T00:25:36;10.57;;;6.15;;
67747;SDS011;54543;50.712;6.070;2023-04-07T00:28:02;10.10;;;5.68;;
67747;SDS011;54543;50.712;6.070;2023-04-07T00:30:28;11.60;;;6.03;;
67747;SDS011;54543;50.712;6.070;2023-04-07T00:32:53;10.93;;;6.00;;
67747;SDS011;54543;50.712;6.070;2023-04-07T00:35:19;8.50;;;5.35;;
67747;SDS011;54543;50.712;6.070;2023-04-07T00:37:44;12.70;;;6.43;;
67747;SDS011;54543;50.712;6.070;2023-04-07T00:40:10;9.45;;;5.03;;
67747;SDS011;54543;50.712;6.070;2023-04-07T00:42:36;9.02;;;5.28;;
67747;SDS011;54543;50.712;6.070;2023-04-07T00:45:01;10.45;;;5.53;;
67747;SDS011;54543;50.712;6.070;2023-04-07T00:47:27;9.40;;;5.43;;
67747;SDS011;54543;50.712;6.070;2023-04-07T00:49:52;9.10;;;4.60;;
67747;SDS011;54543;50.712;6.070;2023-04-07T00:52:18;9.43;;;5.47;;
67747;SDS011;54543;50.712;6.070;2023-04-07T00:54:51;12.88;;;5.75;;
67747;SDS011;54543;50.712;6.070;2023-04-07T00:57:18;10.55;;;5.82;;
67747;SDS011;54543;50.712;6.070;2023-04-07T00:59:44;11.65;;;5.63;;
67747;SDS011;54543;50.712;6.070;2023-04-07T01:02:10;7.65;;;4.75;;
67747;SDS011;54543;50.712;6.070;2023-04-07T01:07:23;11.43;;;5.65;;
67747;SDS011;54543;50.712;6.070;2023-04-07T01:10:00;11.48;;;6.43;;
67747;SDS011;54543;50.712;6.070;2023-04-07T01:15:16;12.52;;;5.55;;
67747;SDS011;54543;50.712;6.070;2023-04-07T01:17:52;11.63;;;6.55;;
67747;SDS011;54543;50.712;6.070;2023-04-07T01:20:23;16.08;;;7.53;;
67747;SDS011;54543;50.712;6.070;2023-04-07T01:22:53;14.02;;;7.35;;
67747;SDS011;54543;50.712;6.070;2023-04-07T01:30:30;18.52;;;8.27;;
67747;SDS011;54543;50.712;6.070;2023-04-07T01:32:59;16.17;;;7.70;;
67747;SDS011;54543;50.712;6.070;2023-04-07T01:35:29;21.10;;;9.27;;
67747;SDS011;54543;50.712;6.070;2023-04-07T01:37:57;16.30;;;8.05;;
67747;SDS011;54543;50.712;6.070;2023-04-07T01:40:24;16.20;;;8.20;;
67747;SDS011;54543;50.712;6.070;2023-04-07T01:42:51;20.65;;;9.60;;
67747;SDS011;54543;50.712;6.070;2023-04-07T01:45:17;17.73;;;8.85;;
67747;SDS011;54543;50.712;6.070;2023-04-07T01:47:44;18.80;;;8.95;;
67747;SDS011;54543;50.712;6.070;2023-04-07T01:50:10;14.32;;;7.32;;
67747;SDS011;54543;50.712;6.070;2023-04-07T01:52:37;12.60;;;6.88;;
67747;SDS011;54543;50.712;6.070;2023-04-07T01:55:04;18.10;;;9.32;;
67747;SDS011;54543;50.712;6.070;2023-04-07T01:57:31;17.40;;;8.88;;
67747;SDS011;54543;50.712;6.070;2023-04-07T01:59:57;15.82;;;8.32;;
67747;SDS011;54543;50.712;6.070;2023-04-07T02:02:23;18.27;;;8.70;;
67747;SDS011;54543;50.712;6.070;2023-04-07T02:04:51;16.00;;;8.38;;
67747;SDS011;54543;50.712;6.070;2023-04-07T02:07:21;16.90;;;8.57;;
67747;SDS011;54543;50.712;6.070;2023-04-07T02:09:55;16.55;;;8.27;;
67747;SDS011;54543;50.712;6.070;2023-04-07T02:12:23;21.70;;;9.90;;
67747;SDS011;54543;50.712;6.070;2023-04-07T02:14:53;22.05;;;10.57;;
67747;SDS011;54543;50.712;6.070;2023-04-07T02:17:19;26.33;;;11.57;;
67747;SDS011;54543;50.712;6.070;2023-04-07T02:19:47;21.13;;;11.20;;
67747;SDS011;54543;50.712;6.070;2023-04-07T02:22:15;17.95;;;9.57;;
67747;SDS011;54543;50.712;6.070;2023-04-07T02:24:41;17.10;;;9.40;;
67747;SDS011;54543;50.712;6.070;2023-04-07T02:27:07;23.70;;;11.50;;
67747;SDS011;54543;50.712;6.070;2023-04-07T02:29:32;21.75;;;10.25;;
67747;SDS011;54543;50.712;6.070;2023-04-07T02:31:58;18.38;;;8.77;;
67747;SDS011;54543;50.712;6.070;2023-04-07T02:34:24;21.25;;;10.23;;
67747;SDS011;54543;50.712;6.070;2023-04-07T02:36:49;15.98;;;7.97;;
67747;SDS011;54543;50.712;6.070;2023-04-07T02:39:15;22.55;;;9.80;;
67747;SDS011;54543;50.712;6.070;2023-04-07T02:41:41;18.60;;;9.45;;
67747;SDS011;54543;50.712;6.070;2023-04-07T02:44:06;16.02;;;7.90;;
67747;SDS011;54543;50.712;6.070;2023-04-07T02:46:32;18.38;;;9.25;;
67747;SDS011;54543;50.712;6.070;2023-04-07T02:48:58;15.80;;;8.82;;
67747;SDS011;54543;50.712;6.070;2023-04-07T02:51:23;18.92;;;9.80;;
67747;SDS011;54543;50.712;6.070;2023-04-07T02:53:49;15.05;;;8.60;;
67747;SDS011;54543;50.712;6.070;2023-04-07T02:56:14;15.23;;;8.13;;
67747;SDS011;54543;50.712;6.070;2023-04-07T02:58:41;20.52;;;10.70;;
67747;SDS011;54543;50.712;6.070;2023-04-07T03:01:06;20.55;;;10.55;;
67747;SDS011;54543;50.712;6.070;2023-04-07T03:03:32;18.48;;;8.93;;
67747;SDS011;54543;50.712;6.070;2023-04-07T03:05:57;14.95;;;8.02;;
67747;SDS011;54543;50.712;6.070;2023-04-07T03:08:23;19.30;;;9.65;;
67747;SDS011;54543;50.712;6.070;2023-04-07T03:10:48;18.27;;;9.63;;
67747;SDS011;54543;50.712;6.070;2023-04-07T03:13:14;14.15;;;7.97;;
67747;SDS011;54543;50.712;6.070;2023-04-07T03:15:44;23.60;;;10.45;;
67747;SDS011;54543;50.712;6.070;2023-04-07T03:18:09;15.27;;;7.32;;
67747;SDS011;54543;50.712;6.070;2023-04-07T03:20:35;15.52;;;6.72;;
67747;SDS011;54543;50.712;6.070;2023-04-07T03:23:02;25.38;;;10.95;;
67747;SDS011;54543;50.712;6.070;2023-04-07T03:25:27;23.70;;;9.48;;
67747;SDS011;54543;50.712;6.070;2023-04-07T03:27:53;24.73;;;10.88;;
67747;SDS011;54543;50.712;6.070;2023-04-07T03:30:19;16.15;;;8.50;;
67747;SDS011;54543;50.712;6.070;2023-04-07T03:32:44;16.27;;;8.18;;
67747;SDS011;54543;50.712;6.070;2023-04-07T03:35:10;22.13;;;9.40;;
67747;SDS011;54543;50.712;6.070;2023-04-07T03:37:36;22.92;;;9.82;;
67747;SDS011;54543;50.712;6.070;2023-04-07T03:40:01;24.40;;;10.13;;
67747;SDS011;54543;50.712;6.070;2023-04-07T03:42:27;21.13;;;9.45;;
67747;SDS011;54543;50.712;6.070;2023-04-07T03:44:52;26.48;;;11.15;;
67747;SDS011;54543;50.712;6.070;2023-04-07T03:47:18;27.35;;;11.73;;
67747;SDS011;54543;50.712;6.070;2023-04-07T03:49:44;22.77;;;10.10;;
67747;SDS011;54543;50.712;6.070;2023-04-07T03:52:09;26.35;;;9.88;;
67747;SDS011;54543;50.712;6.070;2023-04-07T03:54:35;28.85;;;13.13;;
67747;SDS011;54543;50.712;6.070;2023-04-07T03:57:01;23.33;;;10.55;;
67747;SDS011;54543;50.712;6.070;2023-04-07T03:59:27;23.13;;;11.20;;
67747;SDS011;54543;50.712;6.070;2023-04-07T04:01:52;21.02;;;10.07;;
67747;SDS011;54543;50.712;6.070;2023-04-07T04:04:18;18.85;;;8.85;;
67747;SDS011;54543;50.712;6.070;2023-04-07T04:06:43;19.10;;;10.10;;
67747;SDS011;54543;50.712;6.070;2023-04-07T04:09:09;21.20;;;9.85;;
67747;SDS011;54543;50.712;6.070;2023-04-07T04:11:35;20.50;;;8.48;;
67747;SDS011;54543;50.712;6.070;2023-04-07T04:14:00;21.77;;;9.93;;
67747;SDS011;54543;50.712;6.070;2023-04-07T04:16:26;23.63;;;10.20;;
67747;SDS011;54543;50.712;6.070;2023-04-07T04:18:51;19.85;;;10.40;;
67747;SDS011;54543;50.712;6.070;2023-04-07T04:21:17;21.15;;;9.73;;
67747;SDS011;54543;50.712;6.070;2023-04-07T04:23:43;26.90;;;10.30;;
67747;SDS011;54543;50.712;6.070;2023-04-07T04:26:08;21.80;;;10.48;;
67747;SDS011;54543;50.712;6.070;2023-04-07T04:28:34;23.13;;;10.07;;
67747;SDS011;54543;50.712;6.070;2023-04-07T04:30:59;18.13;;;9.75;;
67747;SDS011;54543;50.712;6.070;2023-04-07T04:33:25;20.73;;;9.60;;
67747;SDS011;54543;50.712;6.070;2023-04-07T04:35:51;24.17;;;10.85;;
67747;SDS011;54543;50.712;6.070;2023-04-07T04:38:17;17.90;;;8.00;;
67747;SDS011;54543;50.712;6.070;2023-04-07T04:40:43;20.45;;;10.00;;
67747;SDS011;54543;50.712;6.070;2023-04-07T04:43:08;24.08;;;10.32;;
67747;SDS011;54543;50.712;6.070;2023-04-07T04:45:34;25.30;;;12.20;;
67747;SDS011;54543;50.712;6.070;2023-04-07T04:48:00;23.00;;;10.73;;
67747;SDS011;54543;50.712;6.070;2023-04-07T04:50:25;25.75;;;11.05;;
67747;SDS011;54543;50.712;6.070;2023-04-07T04:52:51;24.70;;;11.20;;
67747;SDS011;54543;50.712;6.070;2023-04-07T04:55:16;24.73;;;11.50;;
67747;SDS011;54543;50.712;6.070;2023-04-07T04:57:42;18.20;;;9.27;;
67747;SDS011;54543;50.712;6.070;2023-04-07T05:00:08;18.80;;;9.43;;
67747;SDS011;54543;50.712;6.070;2023-04-07T05:02:34;24.05;;;9.77;;
67747;SDS011;54543;50.712;6.070;2023-04-07T05:05:00;19.92;;;9.45;;
67747;SDS011;54543;50.712;6.070;2023-04-07T05:07:26;21.23;;;9.48;;
67747;SDS011;54543;50.712;6.070;2023-04-07T05:09:51;20.10;;;9.80;;
67747;SDS011;54543;50.712;6.070;2023-04-07T05:12:17;18.25;;;9.30;;
67747;SDS011;54543;50.712;6.070;2023-04-07T05:14:42;13.73;;;7.13;;
67747;SDS011;54543;50.712;6.070;2023-04-07T05:17:08;19.52;;;9.27;;
67747;SDS011;54543;50.712;6.070;2023-04-07T05:19:33;16.25;;;8.10;;
67747;SDS011;54543;50.712;6.070;2023-04-07T05:21:59;14.93;;;8.00;;
67747;SDS011;54543;50.712;6.070;2023-04-07T05:24:25;19.23;;;9.43;;
67747;SDS011;54543;50.712;6.070;2023-04-07T05:26:53;19.98;;;8.98;;
67747;SDS011;54543;50.712;6.070;2023-04-07T05:29:18;15.63;;;7.78;;
67747;SDS011;54543;50.712;6.070;2023-04-07T05:31:44;19.90;;;8.88;;
67747;SDS011;54543;50.712;6.070;2023-04-07T05:34:10;16.15;;;7.20;;
67747;SDS011;54543;50.712;6.070;2023-04-07T05:36:35;18.20;;;9.15;;
67747;SDS011;54543;50.712;6.070;2023-04-07T05:39:01;20.08;;;9.45;;
67747;SDS011;54543;50.712;6.070;2023-04-07T05:41:26;22.00;;;11.13;;
67747;SDS011;54543;50.712;6.070;2023-04-07T05:43:52;25.30;;;11.70;;
67747;SDS011;54543;50.712;6.070;2023-04-07T05:46:17;19.83;;;9.50;;
67747;SDS011;54543;50.712;6.070;2023-04-07T05:48:43;23.55;;;10.73;;
67747;SDS011;54543;50.712;6.070;2023-04-07T05:51:08;26.60;;;14.10;;
67747;SDS011;54543;50.712;6.070;2023-04-07T05:53:34;26.35;;;13.05;;
67747;SDS011;54543;50.712;6.070;2023-04-07T05:55:59;20.88;;;11.07;;
67747;SDS011;54543;50.712;6.070;2023-04-07T05:58:25;21.33;;;10.52;;
67747;SDS011;54543;50.712;6.070;2023-04-07T06:00:52;23.58;;;11.70;;
67747;SDS011;54543;50.712;6.070;2023-04-07T06:03:17;24.77;;;11.05;;
67747;SDS011;54543;50.712;6.070;2023-04-07T06:05:44;20.15;;;10.30;;
67747;SDS011;54543;50.712;6.070;2023-04-07T06:08:13;19.20;;;9.35;;
67747;SDS011;54543;50.712;6.070;2023-04-07T06:10:38;19.42;;;8.88;;
67747;SDS011;54543;50.712;6.070;2023-04-07T06:13:06;17.55;;;8.32;;
67747;SDS011;54543;50.712;6.070;2023-04-07T06:15:31;22.40;;;11.18;;
67747;SDS011;54543;50.712;6.070;2023-04-07T06:17:57;18.40;;;9.35;;
67747;SDS011;54543;50.712;6.070;2023-04-07T06:20:23;15.75;;;8.80;;
67747;SDS011;54543;50.712;6.070;2023-04-07T06:22:49;17.00;;;8.05;;
67747;SDS011;54543;50.712;6.070;2023-04-07T06:25:15;18.77;;;8.90;;
67747;SDS011;54543;50.712;6.070;2023-04-07T06:27:40;15.00;;;7.93;;
67747;SDS011;54543;50.712;6.070;2023-04-07T06:30:06;18.58;;;8.82;;
67747;SDS011;54543;50.712;6.070;2023-04-07T06:32:32;16.70;;;8.15;;
67747;SDS011;54543;50.712;6.070;2023-04-07T06:34:58;15.32;;;7.80;;
67747;SDS011;54543;50.712;6.070;2023-04-07T06:37:23;14.20;;;7.15;;
67747;SDS011;54543;50.712;6.070;2023-04-07T06:39:50;17.30;;;9.60;;
67747;SDS011;54543;50.712;6.070;2023-04-07T06:42:15;15.00;;;6.82;;
67747;SDS011;54543;50.712;6.070;2023-04-07T06:44:41;20.35;;;8.02;;
67747;SDS011;54543;50.712;6.070;2023-04-07T06:47:06;12.65;;;7.03;;
67747;SDS011;54543;50.712;6.070;2023-04-07T06:49:33;12.48;;;6.72;;
67747;SDS011;54543;50.712;6.070;2023-04-07T06:51:59;11.50;;;6.00;;
67747;SDS011;54543;50.712;6.070;2023-04-07T06:54:24;12.57;;;5.85;;
67747;SDS011;54543;50.712;6.070;2023-04-07T06:56:50;16.35;;;6.30;;
67747;SDS011;54543;50.712;6.070;2023-04-07T06:59:15;8.65;;;4.57;;
67747;SDS011;54543;50.712;6.070;2023-04-07T07:01:41;11.63;;;4.32;;
67747;SDS011;54543;50.712;6.070;2023-04-07T07:04:07;10.10;;;4.88;;
67747;SDS011;54543;50.712;6.070;2023-04-07T07:06:33;10.82;;;5.10;;
67747;SDS011;54543;50.712;6.070;2023-04-07T07:08:59;10.40;;;4.38;;
67747;SDS011;54543;50.712;6.070;2023-04-07T07:11:26;11.23;;;4.85;;
67747;SDS011;54543;50.712;6.070;2023-04-07T07:13:52;11.65;;;4.63;;
67747;SDS011;54543;50.712;6.070;2023-04-07T07:16:18;10.18;;;4.47;;
67747;SDS011;54543;50.712;6.070;2023-04-07T07:18:44;7.70;;;4.15;;
67747;SDS011;54543;50.712;6.070;2023-04-07T07:21:09;9.75;;;4.82;;
67747;SDS011;54543;50.712;6.070;2023-04-07T07:23:35;10.85;;;5.00;;
67747;SDS011;54543;50.712;6.070;2023-04-07T07:26:00;10.00;;;4.80;;
67747;SDS011;54543;50.712;6.070;2023-04-07T07:28:26;9.82;;;4.28;;
67747;SDS011;54543;50.712;6.070;2023-04-07T07:30:53;11.45;;;4.80;;
67747;SDS011;54543;50.712;6.070;2023-04-07T07:33:18;11.65;;;5.18;;
67747;SDS011;54543;50.712;6.070;2023-04-07T07:35:44;11.35;;;4.63;;
67747;SDS011;54543;50.712;6.070;2023-04-07T07:38:10;9.80;;;4.95;;
67747;SDS011;54543;50.712;6.070;2023-04-07T07:40:36;10.57;;;4.78;;
67747;SDS011;54543;50.712;6.070;2023-04-07T07:43:01;8.15;;;3.67;;
67747;SDS011;54543;50.712;6.070;2023-04-07T07:45:26;9.68;;;4.78;;
67747;SDS011;54543;50.712;6.070;2023-04-07T07:47:52;11.88;;;4.68;;
67747;SDS011;54543;50.712;6.070;2023-04-07T07:50:18;9.32;;;4.50;;
67747;SDS011;54543;50.712;6.070;2023-04-07T07:52:43;7.25;;;3.38;;
67747;SDS011;54543;50.712;6.070;2023-04-07T07:55:09;8.20;;;4.60;;
67747;SDS011;54543;50.712;6.070;2023-04-07T07:57:35;9.98;;;4.20;;
67747;SDS011;54543;50.712;6.070;2023-04-07T08:00:01;8.73;;;4.35;;
67747;SDS011;54543;50.712;6.070;2023-04-07T08:02:27;7.28;;;3.83;;
67747;SDS011;54543;50.712;6.070;2023-04-07T08:04:57;7.43;;;3.85;;
67747;SDS011;54543;50.712;6.070;2023-04-07T08:07:23;9.93;;;4.47;;
67747;SDS011;54543;50.712;6.070;2023-04-07T08:09:49;11.52;;;4.05;;
67747;SDS011;54543;50.712;6.070;2023-04-07T08:12:15;7.70;;;3.72;;
67747;SDS011;54543;50.712;6.070;2023-04-07T08:14:41;4.95;;;2.75;;
67747;SDS011;54543;50.712;6.070;2023-04-07T08:17:06;10.00;;;4.70;;
67747;SDS011;54543;50.712;6.070;2023-04-07T08:19:32;10.23;;;4.82;;
67747;SDS011;54543;50.712;6.070;2023-04-07T08:21:57;10.00;;;4.53;;
67747;SDS011;54543;50.712;6.070;2023-04-07T08:24:23;10.88;;;5.03;;
67747;SDS011;54543;50.712;6.070;2023-04-07T08:26:48;9.98;;;4.35;;
67747;SDS011;54543;50.712;6.070;2023-04-07T08:29:14;13.52;;;5.03;;
67747;SDS011;54543;50.712;6.070;2023-04-07T08:31:40;7.90;;;3.95;;
67747;SDS011;54543;50.712;6.070;2023-04-07T08:34:05;7.22;;;3.58;;
67747;SDS011;54543;50.712;6.070;2023-04-07T08:36:31;9.20;;;4.00;;
67747;SDS011;54543;50.712;6.070;2023-04-07T08:38:57;10.20;;;4.22;;
67747;SDS011;54543;50.712;6.070;2023-04-07T08:41:42;9.65;;;4.28;;
67747;SDS011;54543;50.712;6.070;2023-04-07T08:44:09;7.20;;;4.00;;
67747;SDS011;54543;50.712;6.070;2023-04-07T08:46:37;7.85;;;3.80;;
67747;SDS011;54543;50.712;6.070;2023-04-07T08:49:06;8.38;;;4.28;;
67747;SDS011;54543;50.712;6.070;2023-04-07T08:51:34;9.55;;;4.72;;
67747;SDS011;54543;50.712;6.070;2023-04-07T08:54:03;14.27;;;5.97;;
67747;SDS011;54543;50.712;6.070;2023-04-07T08:56:32;10.38;;;4.93;;
67747;SDS011;54543;50.712;6.070;2023-04-07T08:58:59;9.43;;;4.85;;
67747;SDS011;54543;50.712;6.070;2023-04-07T09:01:30;10.27;;;5.03;;
67747;SDS011;54543;50.712;6.070;2023-04-07T09:03:57;8.95;;;5.15;;
67747;SDS011;54543;50.712;6.070;2023-04-07T09:06:23;10.30;;;5.57;;
67747;SDS011;54543;50.712;6.070;2023-04-07T09:08:49;10.38;;;5.15;;
67747;SDS011;54543;50.712;6.070;2023-04-07T09:11:14;11.00;;;5.35;;
67747;SDS011;54543;50.712;6.070;2023-04-07T09:13:40;11.25;;;4.47;;
67747;SDS011;54543;50.712;6.070;2023-04-07T09:16:06;8.82;;;4.78;;
67747;SDS011;54543;50.712;6.070;2023-04-07T09:18:31;11.55;;;5.50;;
67747;SDS011;54543;50.712;6.070;2023-04-07T09:25:57;11.02;;;5.78;;
67747;SDS011;54543;50.712;6.070;2023-04-07T09:28:48;10.40;;;5.30;;
67747;SDS011;54543;50.712;6.070;2023-04-07T09:31:14;11.32;;;5.95;;
67747;SDS011;54543;50.712;6.070;2023-04-07T09:33:40;9.50;;;4.80;;
67747;SDS011;54543;50.712;6.070;2023-04-07T09:36:06;9.52;;;5.00;;
67747;SDS011;54543;50.712;6.070;2023-04-07T09:38:33;9.02;;;4.28;;
67747;SDS011;54543;50.712;6.070;2023-04-07T09:41:10;9.32;;;4.43;;
67747;SDS011;54543;50.712;6.070;2023-04-07T09:43:38;9.15;;;4.70;;
67747;SDS011;54543;50.712;6.070;2023-04-07T09:46:09;11.13;;;5.10;;
67747;SDS011;54543;50.712;6.070;2023-04-07T09:48:35;13.90;;;5.72;;
67747;SDS011;54543;50.712;6.070;2023-04-07T09:51:08;7.10;;;4.10;;
67747;SDS011;54543;50.712;6.070;2023-04-07T09:56:11;10.57;;;5.18;;
67747;SDS011;54543;50.712;6.070;2023-04-07T09:58:40;10.02;;;5.30;;
67747;SDS011;54543;50.712;6.070;2023-04-07T10:01:07;7.72;;;4.63;;
67747;SDS011;54543;50.712;6.070;2023-04-07T10:03:34;8.68;;;4.20;;
67747;SDS011;54543;50.712;6.070;2023-04-07T10:06:01;7.60;;;4.25;;
67747;SDS011;54543;50.712;6.070;2023-04-07T10:08:27;7.30;;;3.58;;
67747;SDS011;54543;50.712;6.070;2023-04-07T10:10:53;6.88;;;3.58;;
67747;SDS011;54543;50.712;6.070;2023-04-07T10:13:20;5.72;;;2.78;;
67747;SDS011;54543;50.712;6.070;2023-04-07T10:15:46;6.47;;;3.47;;
67747;SDS011;54543;50.712;6.070;2023-04-07T10:18:13;9.50;;;4.88;;
67747;SDS011;54543;50.712;6.070;2023-04-07T10:20:39;8.15;;;3.85;;
67747;SDS011;54543;50.712;6.070;2023-04-07T10:23:10;5.28;;;3.15;;
67747;SDS011;54543;50.712;6.070;2023-04-07T10:28:09;6.25;;;3.58;;
67747;SDS011;54543;50.712;6.070;2023-04-07T10:30:37;6.50;;;3.15;;
67747;SDS011;54543;50.712;6.070;2023-04-07T10:33:03;4.22;;;2.60;;
67747;SDS011;54543;50.712;6.070;2023-04-07T10:36:01;6.63;;;2.75;;
67747;SDS011;54543;50.712;6.070;2023-04-07T10:38:29;6.45;;;3.00;;
67747;SDS011;54543;50.712;6.070;2023-04-07T10:40:55;6.40;;;3.80;;
67747;SDS011;54543;50.712;6.070;2023-04-07T10:43:40;8.13;;;4.45;;
67747;SDS011;54543;50.712;6.070;2023-04-07T10:46:08;7.55;;;4.00;;
67747;SDS011;54543;50.712;6.070;2023-04-07T10:48:33;7.40;;;3.97;;
67747;SDS011;54543;50.712;6.070;2023-04-07T10:53:31;8.75;;;5.20;;
67747;SDS011;54543;50.712;6.070;2023-04-07T10:55:57;12.43;;;5.82;;
67747;SDS011;54543;50.712;6.070;2023-04-07T11:03:34;6.75;;;3.83;;
67747;SDS011;54543;50.712;6.070;2023-04-07T11:06:05;9.25;;;4.47;;
67747;SDS011;54543;50.712;6.070;2023-04-07T11:08:38;7.70;;;3.80;;
67747;SDS011;54543;50.712;6.070;2023-04-07T11:11:08;6.07;;;3.40;;
67747;SDS011;54543;50.712;6.070;2023-04-07T11:13:47;6.57;;;3.17;;
67747;SDS011;54543;50.712;6.070;2023-04-07T11:18:42;5.60;;;3.15;;
67747;SDS011;54543;50.712;6.070;2023-04-07T11:21:08;8.25;;;4.05;;
67747;SDS011;54543;50.712;6.070;2023-04-07T11:23:41;7.78;;;4.03;;
67747;SDS011;54543;50.712;6.070;2023-04-07T11:26:08;4.90;;;3.30;;
67747;SDS011;54543;50.712;6.070;2023-04-07T11:28:36;5.30;;;3.13;;
67747;SDS011;54543;50.712;6.070;2023-04-07T11:31:11;7.70;;;3.20;;
67747;SDS011;54543;50.712;6.070;2023-04-07T11:33:36;5.78;;;3.20;;
67747;SDS011;54543;50.712;6.070;2023-04-07T11:36:05;6.75;;;3.28;;
67747;SDS011;54543;50.712;6.070;2023-04-07T11:38:34;5.57;;;3.45;;
67747;SDS011;54543;50.712;6.070;2023-04-07T11:41:13;5.18;;;3.00;;
67747;SDS011;54543;50.712;6.070;2023-04-07T11:43:40;7.63;;;4.43;;
67747;SDS011;54543;50.712;6.070;2023-04-07T11:48:41;8.57;;;5.13;;
67747;SDS011;54543;50.712;6.070;2023-04-07T11:51:15;6.82;;;4.18;;
67747;SDS011;54543;50.712;6.070;2023-04-07T11:53:46;12.35;;;6.68;;
67747;SDS011;54543;50.712;6.070;2023-04-07T11:56:18;10.90;;;5.30;;
67747;SDS011;54543;50.712;6.070;2023-04-07T11:58:50;6.97;;;3.78;;
67747;SDS011;54543;50.712;6.070;2023-04-07T12:01:16;7.72;;;5.05;;
67747;SDS011;54543;50.712;6.070;2023-04-07T12:06:31;8.18;;;4.90;;
67747;SDS011;54543;50.712;6.070;2023-04-07T12:09:03;9.27;;;5.63;;
67747;SDS011;54543;50.712;6.070;2023-04-07T12:11:30;12.80;;;6.20;;
67747;SDS011;54543;50.712;6.070;2023-04-07T12:13:57;10.13;;;6.35;;
67747;SDS011;54543;50.712;6.070;2023-04-07T12:16:22;14.00;;;6.20;;
67747;SDS011;54543;50.712;6.070;2023-04-07T12:18:48;7.88;;;4.75;;
67747;SDS011;54543;50.712;6.070;2023-04-07T12:21:15;7.90;;;5.03;;
67747;SDS011;54543;50.712;6.070;2023-04-07T12:23:41;9.60;;;4.72;;
67747;SDS011;54543;50.712;6.070;2023-04-07T12:26:07;8.02;;;4.85;;
67747;SDS011;54543;50.712;6.070;2023-04-07T12:28:33;9.82;;;5.80;;
67747;SDS011;54543;50.712;6.070;2023-04-07T12:30:58;8.48;;;4.78;;
67747;SDS011;54543;50.712;6.070;2023-04-07T12:33:24;11.10;;;5.68;;
67747;SDS011;54543;50.712;6.070;2023-04-07T12:35:49;8.48;;;4.35;;
67747;SDS011;54543;50.712;6.070;2023-04-07T12:38:15;8.80;;;5.68;;
67747;SDS011;54543;50.712;6.070;2023-04-07T12:40:41;10.55;;;5.97;;
67747;SDS011;54543;50.712;6.070;2023-04-07T12:43:07;7.43;;;4.82;;
67747;SDS011;54543;50.712;6.070;2023-04-07T12:45:32;7.57;;;4.93;;
67747;SDS011;54543;50.712;6.070;2023-04-07T12:47:58;6.80;;;4.32;;
67747;SDS011;54543;50.712;6.070;2023-04-07T12:50:24;9.32;;;5.15;;
67747;SDS011;54543;50.712;6.070;2023-04-07T12:52:51;9.02;;;5.40;;
67747;SDS011;54543;50.712;6.070;2023-04-07T12:55:17;9.95;;;5.80;;
67747;SDS011;54543;50.712;6.070;2023-04-07T12:57:43;8.20;;;4.45;;
67747;SDS011;54543;50.712;6.070;2023-04-07T13:00:08;10.93;;;5.93;;
67747;SDS011;54543;50.712;6.070;2023-04-07T13:02:34;8.32;;;5.50;;
67747;SDS011;54543;50.712;6.070;2023-04-07T13:05:03;8.63;;;5.55;;
67747;SDS011;54543;50.712;6.070;2023-04-07T13:07:30;8.93;;;5.95;;
67747;SDS011;54543;50.712;6.070;2023-04-07T13:09:55;7.25;;;4.97;;
67747;SDS011;54543;50.712;6.070;2023-04-07T13:12:21;6.35;;;4.03;;
67747;SDS011;54543;50.712;6.070;2023-04-07T13:14:47;8.60;;;4.57;;
67747;SDS011;54543;50.712;6.070;2023-04-07T13:17:13;6.82;;;4.40;;
67747;SDS011;54543;50.712;6.070;2023-04-07T13:19:39;7.63;;;4.80;;
67747;SDS011;54543;50.712;6.070;2023-04-07T13:22:05;8.05;;;5.10;;
67747;SDS011;54543;50.712;6.070;2023-04-07T13:24:30;10.45;;;5.68;;
67747;SDS011;54543;50.712;6.070;2023-04-07T13:26:56;8.85;;;5.10;;
67747;SDS011;54543;50.712;6.070;2023-04-07T13:29:22;7.78;;;3.80;;
67747;SDS011;54543;50.712;6.070;2023-04-07T13:31:48;7.55;;;5.35;;
67747;SDS011;54543;50.712;6.070;2023-04-07T13:34:13;6.68;;;4.10;;
67747;SDS011;54543;50.712;6.070;2023-04-07T13:36:39;7.80;;;4.90;;
67747;SDS011;54543;50.712;6.070;2023-04-07T13:39:05;7.65;;;4.90;;
67747;SDS011;54543;50.712;6.070;2023-04-07T13:41:31;7.75;;;4.78;;
67747;SDS011;54543;50.712;6.070;2023-04-07T13:43:57;6.72;;;4.38;;
67747;SDS011;54543;50.712;6.070;2023-04-07T13:46:23;7.47;;;4.68;;
67747;SDS011;54543;50.712;6.070;2023-04-07T13:48:49;6.97;;;4.20;;
67747;SDS011;54543;50.712;6.070;2023-04-07T13:51:15;6.50;;;4.00;;
67747;SDS011;54543;50.712;6.070;2023-04-07T13:53:41;6.63;;;3.90;;
67747;SDS011;54543;50.712;6.070;2023-04-07T13:56:06;6.55;;;3.90;;
67747;SDS011;54543;50.712;6.070;2023-04-07T13:58:33;7.13;;;4.57;;
67747;SDS011;54543;50.712;6.070;2023-04-07T14:00:59;7.13;;;3.70;;
67747;SDS011;54543;50.712;6.070;2023-04-07T14:03:25;5.63;;;3.63;;
67747;SDS011;54543;50.712;6.070;2023-04-07T14:05:51;5.82;;;3.75;;
67747;SDS011;54543;50.712;6.070;2023-04-07T14:08:18;5.47;;;3.60;;
67747;SDS011;54543;50.712;6.070;2023-04-07T14:10:45;5.50;;;3.58;;
67747;SDS011;54543;50.712;6.070;2023-04-07T14:13:10;5.15;;;3.40;;
67747;SDS011;54543;50.712;6.070;2023-04-07T14:15:36;4.90;;;2.75;;
67747;SDS011;54543;50.712;6.070;2023-04-07T14:18:01;5.65;;;2.90;;
67747;SDS011;54543;50.712;6.070;2023-04-07T14:20:27;5.00;;;3.10;;
67747;SDS011;54543;50.712;6.070;2023-04-07T14:22:53;4.85;;;2.97;;
67747;SDS011;54543;50.712;6.070;2023-04-07T14:25:18;5.43;;;3.67;;
67747;SDS011;54543;50.712;6.070;2023-04-07T14:27:44;9.85;;;3.67;;
67747;SDS011;54543;50.712;6.070;2023-04-07T14:30:10;6.85;;;3.53;;
67747;SDS011;54543;50.712;6.070;2023-04-07T14:32:36;4.35;;;3.00;;
67747;SDS011;54543;50.712;6.070;2023-04-07T14:35:01;5.60;;;3.28;;
67747;SDS011;54543;50.712;6.070;2023-04-07T14:37:27;6.88;;;3.80;;
67747;SDS011;54543;50.712;6.070;2023-04-07T14:39:53;6.90;;;4.20;;
67747;SDS011;54543;50.712;6.070;2023-04-07T14:42:19;7.88;;;4.05;;
67747;SDS011;54543;50.712;6.070;2023-04-07T14:44:45;7.70;;;4.07;;
67747;SDS011;54543;50.712;6.070;2023-04-07T14:47:11;7.03;;;4.93;;
67747;SDS011;54543;50.712;6.070;2023-04-07T14:49:37;7.65;;;5.28;;
67747;SDS011;54543;50.712;6.070;2023-04-07T14:52:02;9.02;;;5.13;;
67747;SDS011;54543;50.712;6.070;2023-04-07T14:54:28;6.50;;;4.30;;
67747;SDS011;54543;50.712;6.070;2023-04-07T14:56:54;7.40;;;4.90;;
67747;SDS011;54543;50.712;6.070;2023-04-07T14:59:19;8.05;;;4.93;;
67747;SDS011;54543;50.712;6.070;2023-04-07T15:01:45;5.68;;;4.25;;
67747;SDS011;54543;50.712;6.070;2023-04-07T15:04:10;7.35;;;4.30;;
67747;SDS011;54543;50.712;6.070;2023-04-07T15:06:39;8.75;;;4.90;;
67747;SDS011;54543;50.712;6.070;2023-04-07T15:09:06;8.30;;;4.47;;
67747;SDS011;54543;50.712;6.070;2023-04-07T15:11:31;8.38;;;4.80;;